EST,Max TemperatureF,Mean TemperatureF,Min TemperatureF,Max Dew PointF,MeanDew PointF,Min DewpointF,Max Humidity, Mean Humidity, Min Humidity, Max Sea Level PressureIn, Mean Sea Level PressureIn, Min Sea Level PressureIn, Max VisibilityMiles, Mean VisibilityMiles, Min VisibilityMiles, Max Wind SpeedMPH, Mean Wind SpeedMPH, Max Gust SpeedMPH,PrecipitationIn, CloudCover, Events, WindDirDegrees
2013-2-1,20,16,13,10,6,3,77,67,54,30.29,30.17,29.91,10,9,4,18,13,26,0.00,6,Snow,254
2013-2-2,24,19,12,20,13,6,84,77,65,30.24,30.05,29.94,10,6,0,13,7,21,0.00,8,Snow,234
2013-2-3,22,12,1,16,9,-3,86,77,63,30.02,29.95,29.87,10,8,2,14,4,22,0.00,7,Snow,264
2013-2-4,24,21,18,20,17,12,87,82,74,30.03,29.94,29.86,10,5,1,9,5,,0.00,8,Snow,176
2013-2-5,29,24,19,26,19,16,88,80,62,29.95,29.90,29.83,10,7,0,12,3,16,0.00,8,Snow,212
2013-2-6,32,20,9,26,13,4,87,64,45,30.30,30.21,29.96,10,10,5,15,4,17,0.00,2,,298
2013-2-7,39,32,26,30,23,16,90,72,58,30.27,30.09,29.82,10,9,3,12,5,20,0.00,4,Snow,97
2013-2-8,33,26,19,31,23,14,92,81,69,30.35,30.03,29.74,10,7,1,17,7,24,0.00,6,Snow,341
2013-2-9,32,22,11,20,16,8,87,74,53,30.45,30.37,30.28,10,10,7,8,1,,0.00,0,,131
2013-2-10,45,32,19,39,25,17,91,70,51,30.28,30.02,29.69,10,10,5,15,5,25,0.00,5,Rain,129
2013-2-11,47,40,33,43,30,23,87,70,60,29.91,29.73,29.60,10,10,7,26,15,38,0.00,8,Rain,235
2013-2-12,35,33,31,25,23,22,74,68,61,30.07,29.99,29.92,10,10,10,17,10,25,0.00,8,,265
2013-2-13,39,33,27,26,23,20,82,70,53,29.93,29.83,29.75,10,10,7,9,4,,0.00,4,,249
2013-2-14,42,36,31,34,29,24,87,76,63,29.88,29.78,29.71,10,8,4,17,9,29,0.00,7,,213
2013-2-15,34,30,26,26,19,12,78,62,46,30.13,30.03,29.89,10,10,10,12,8,20,0.00,7,,297
2013-2-16,28,22,17,20,14,8,83,69,50,30.11,30.04,29.98,10,9,1,15,3,21,0.00,6,Snow,287
2013-2-17,26,20,13,12,8,4,84,63,37,30.21,30.15,30.06,10,10,10,10,5,18,0.00,3,,311
2013-2-18,49,32,16,33,21,9,75,55,41,30.20,29.95,29.62,10,10,10,15,7,23,0.00,3,Rain,162
2013-2-19,47,32,18,40,22,10,88,74,56,29.98,29.72,29.47,10,8,2,24,16,43,0.00,8,Rain-Snow,241
2013-2-20,23,20,18,15,11,8,78,66,56,30.24,30.14,29.98,10,9,1,17,12,26,0.00,8,Snow,285
2013-2-21,26,24,21,17,15,14,75,69,63,30.38,30.30,30.23,10,10,7,14,6,20,0.00,7,Snow,37
2013-2-22,36,30,23,33,25,18,93,85,76,30.22,29.99,29.88,10,6,0,15,9,22,0.00,8,Fog-Snow,135
2013-2-23,34,31,27,31,21,18,85,67,56,29.94,29.92,29.89,10,10,7,15,8,21,0.00,8,,255
2013-2-24,37,30,24,26,22,18,88,71,57,30.15,30.04,29.91,10,10,5,15,7,21,0.00,6,,256
2013-2-25,39,29,19,26,22,17,89,75,54,30.22,30.16,30.07,10,7,2,12,2,,0.00,1,,88
2013-2-26,34,32,30,32,28,23,93,83,70,30.08,29.76,29.45,10,6,1,18,10,31,0.00,4,Rain-Snow,75
2013-2-27,36,34,32,34,32,30,94,91,87,29.60,29.53,29.43,10,5,1,12,7,16,0.00,8,Rain-Snow,215
2013-2-28,38,35,32,32,30,27,92,84,72,29.95,29.73,29.57,10,8,2,14,7,20,0.00,8,Snow,313